»·PEaware :: N140SW KPMD-KBUR

N140SW :: KPMD-KBUR

FLIGHT INFORMATION

Flight Status: Arrived
Operator: Privately registered:
United States
More flights under this callsign
Pilot: Brad G. (30387)
Aircraft: BEECH AIRCRAFT BARON
(BE58)
More flights by this aircraft type
Origin: KPMD Palmdale AF Plant 42
United States
Destination: KBUR Bob Hope-Burbank
United States
More flights between these airports :: More routes between these airports
Route: +
File this flight plan on PilotEdge
Remarks:
Altitude:
(Current/Filed)
10,500ft
Speed:
(Current/Filed)
140kts
Departed: 24-Oct-20 01:01 PM
Arrived: 24-Oct-20 01:36 PM
Distance/Time
Traveled:
29nm/0:35
Distance/Time
To Go:
Arrived

Flight Plot

Page will automatically refresh every two minutes.

Flight plan parsing failed; only flown route is shown


Map Options




Map Legend


Flown Route
Filed Route
Departure Airport
Arrival Airport
Navaid (VOR, NDB)
Fix

Horizontal Profiles

Position Reports

Time Latitude Longitude Heading Altitude Ground
Speed
24-Oct-20 12:46 34.638856 -118.067873 270 2491ft 0kts
24-Oct-20 12:47 34.638856 -118.067873 270 2491ft 0kts
24-Oct-20 12:48 34.638855 -118.068323 270 2491ft 5kts
24-Oct-20 12:49 34.638862 -118.070756 270 2490ft 7kts
24-Oct-20 12:50 34.638036 -118.071876 179 2492ft 3kts
24-Oct-20 12:51 34.637632 -118.071876 179 2492ft 0kts
24-Oct-20 12:52 34.636869 -118.071875 180 2494ft 5kts
24-Oct-20 12:53 34.635777 -118.070885 85 2496ft 6kts
24-Oct-20 12:54 34.635875 -118.068863 86 2495ft 8kts
24-Oct-20 12:55 34.636300 -118.066053 50 2494ft 7kts
24-Oct-20 12:56 34.637606 -118.064019 52 2492ft 10kts
24-Oct-20 12:57 34.637606 -118.064019 52 2492ft 10kts
24-Oct-20 12:58 34.638558 -118.061799 139 2491ft 6kts
24-Oct-20 12:59 34.637831 -118.061122 142 2491ft 6kts
24-Oct-20 13:00 34.632161 -118.068214 231 2499ft 106kts
24-Oct-20 13:01 34.617537 -118.102217 279 3405ft 122kts
24-Oct-20 13:02 34.638759 -118.132362 325 4294ft 122kts
24-Oct-20 13:03 34.666133 -118.156335 321 5137ft 121kts
24-Oct-20 13:04 34.692804 -118.181114 320 5952ft 122kts
24-Oct-20 13:05 34.720097 -118.206559 319 6834ft 126kts
24-Oct-20 13:06 34.748195 -118.232763 318 7740ft 128kts
24-Oct-20 13:07 34.776475 -118.259165 317 8592ft 129kts
24-Oct-20 13:08 34.795924 -118.290976 246 9388ft 121kts
24-Oct-20 13:09 34.764448 -118.300922 190 10183ft 124kts
24-Oct-20 13:10 34.728180 -118.305177 189 10572ft 147kts
24-Oct-20 13:11 34.684920 -118.309586 188 10527ft 158kts
24-Oct-20 13:12 34.641390 -118.313973 188 10526ft 156kts
24-Oct-20 13:13 34.598030 -118.318383 188 10526ft 156kts
24-Oct-20 13:14 34.554614 -118.322795 188 10527ft 156kts
24-Oct-20 13:15 34.511314 -118.327188 188 10547ft 155kts
24-Oct-20 13:16 34.481705 -118.363776 241 9298ft 178kts
24-Oct-20 13:17 34.460197 -118.414474 241 8395ft 165kts
24-Oct-20 13:18 34.439690 -118.463853 241 7572ft 163kts
24-Oct-20 13:19 34.419306 -118.513483 241 6845ft 169kts
24-Oct-20 13:20 34.400242 -118.560045 241 6283ft 171kts
24-Oct-20 13:21 34.382407 -118.603527 241 5670ft 165kts
24-Oct-20 13:22 34.366342 -118.642431 241 5030ft 148kts
24-Oct-20 13:23 34.343143 -118.663380 171 5077ft 124kts
24-Oct-20 13:24 34.311980 -118.660407 181 5069ft 124kts
24-Oct-20 13:25 34.281805 -118.660824 181 5066ft 122kts
24-Oct-20 13:26 34.252185 -118.661208 181 5063ft 121kts
24-Oct-20 13:27 34.225415 -118.648808 114 4867ft 139kts
24-Oct-20 13:28 34.209942 -118.594379 111 4017ft 127kts
24-Oct-20 13:29 34.201083 -118.554501 98 3744ft 115kts
24-Oct-20 13:30 34.199832 -118.515319 93 3173ft 121kts
24-Oct-20 13:31 34.199305 -118.474275 93 2480ft 122kts
24-Oct-20 13:33 34.198798 -118.435034 93 1850ft 110kts
24-Oct-20 13:34 34.198341 -118.400407 93 1255ft 95kts
24-Oct-20 13:35 34.197916 -118.368927 93 774ft 89kts
24-Oct-20 13:36 34.198730 -118.360247 359 718ft 5kts
24-Oct-20 13:37 34.199885 -118.358746 42 720ft 4kts
24-Oct-20 13:38 34.200053 -118.358826 257 720ft 0kts

Navigation Log

Ident Type
Flight plan parsing failed, navigation log unavailable